DAL419 KSEA-PHNL
Flight info
| Callsign | DAL419 |
|---|---|
| Flight time | N/A |
| Altitude | 36000 |
| Route | HAROB6 HQM SEDAR FOZZI HEKAB A332 HELOP/N0474F380 A332 AUNTI AHHEE |
| Aircraft | A339/H-SADE1E2E3GHIJ3J5M1P2RWXY/LB2D1 |
Departure
| Time | 2026-05-08 00:42 |
|---|---|
| Airport | Seattle–Tacoma International Airport (KSEA) |
Arrival
| Time | N/A |
|---|---|
| Airport | Daniel K. Inouye International Airport (PHNL) |
| Time | Latitude | Longitude | Altitude | Speed | Heading |
|---|---|---|---|---|---|
| 2026-05-08 00:10 | 47.43956 | -122.30132 | 392 ft | 0 kts | 239° |
| 2026-05-08 00:33 | 47.43962 | -122.30118 | 390 ft | 4 kts | 242° |
| 2026-05-08 00:33 | 47.43974 | -122.30083 | 392 ft | 4 kts | 254° |
| 2026-05-08 00:34 | 47.43980 | -122.30046 | 393 ft | 4 kts | 272° |
| 2026-05-08 00:34 | 47.43978 | -122.30010 | 393 ft | 4 kts | 303° |
| 2026-05-08 00:34 | 47.43973 | -122.29997 | 387 ft | 0 kts | 314° |
| 2026-05-08 00:37 | 47.43979 | -122.30005 | 392 ft | 4 kts | 314° |
| 2026-05-08 00:38 | 47.44051 | -122.30150 | 396 ft | 12 kts | 282° |
| 2026-05-08 00:38 | 47.44019 | -122.30277 | 393 ft | 16 kts | 242° |
| 2026-05-08 00:38 | 47.43991 | -122.30449 | 391 ft | 18 kts | 268° |
| 2026-05-08 00:38 | 47.43927 | -122.30543 | 389 ft | 13 kts | 184° |
| 2026-05-08 00:39 | 47.43829 | -122.30544 | 388 ft | 15 kts | 180° |
| 2026-05-08 00:39 | 47.43717 | -122.30542 | 384 ft | 17 kts | 179° |
| 2026-05-08 00:39 | 47.43582 | -122.30555 | 377 ft | 21 kts | 184° |
| 2026-05-08 00:39 | 47.43428 | -122.30562 | 373 ft | 22 kts | 180° |
| 2026-05-08 00:40 | 47.43396 | -122.30562 | 376 ft | 2 kts | 180° |
| 2026-05-08 00:40 | 47.43371 | -122.30562 | 371 ft | 1 kts | 180° |
| 2026-05-08 00:40 | 47.43319 | -122.30562 | 373 ft | 12 kts | 180° |
| 2026-05-08 00:40 | 47.43223 | -122.30578 | 369 ft | 15 kts | 204° |
| 2026-05-08 00:41 | 47.43170 | -122.30703 | 367 ft | 11 kts | 259° |
| 2026-05-08 00:41 | 47.43185 | -122.30795 | 366 ft | 5 kts | 309° |
| 2026-05-08 00:41 | 47.43229 | -122.30806 | 368 ft | 17 kts | 358° |
| 2026-05-08 00:41 | 47.43602 | -122.30806 | 375 ft | 91 kts | 0° |
| 2026-05-08 00:42 | 47.44452 | -122.30797 | 401 ft | 151 kts | 0° |
| 2026-05-08 00:42 | 47.45633 | -122.30783 | 658 ft | 179 kts | 360° |
| 2026-05-08 00:42 | 47.46924 | -122.30791 | 1291 ft | 191 kts | 359° |
| 2026-05-08 00:42 | 47.48273 | -122.30809 | 1953 ft | 196 kts | 359° |
| 2026-05-08 00:43 | 47.49666 | -122.30820 | 2538 ft | 206 kts | 360° |
| 2026-05-08 00:43 | 47.51152 | -122.30792 | 2959 ft | 223 kts | 0° |
| 2026-05-08 00:43 | 47.52761 | -122.30731 | 3333 ft | 240 kts | 1° |
| 2026-05-08 00:43 | 47.54495 | -122.30791 | 3629 ft | 257 kts | 354° |
| 2026-05-08 00:44 | 47.56288 | -122.31293 | 4041 ft | 264 kts | 340° |
| 2026-05-08 00:44 | 47.57888 | -122.32584 | 4701 ft | 264 kts | 324° |
| 2026-05-08 00:44 | 47.59378 | -122.34246 | 5161 ft | 272 kts | 320° |
| 2026-05-08 00:44 | 47.60712 | -122.36222 | 5746 ft | 271 kts | 306° |
| 2026-05-08 00:45 | 47.61507 | -122.38736 | 5997 ft | 271 kts | 282° |
| 2026-05-08 00:45 | 47.61763 | -122.41503 | 6049 ft | 271 kts | 274° |
| 2026-05-08 00:45 | 47.61906 | -122.44286 | 6046 ft | 270 kts | 271° |
| 2026-05-08 00:45 | 47.61597 | -122.47005 | 6045 ft | 270 kts | 247° |
| 2026-05-08 00:46 | 47.60544 | -122.49285 | 6056 ft | 269 kts | 224° |
| 2026-05-08 00:46 | 47.59190 | -122.51218 | 6051 ft | 270 kts | 224° |
| 2026-05-08 00:46 | 47.57853 | -122.53166 | 6050 ft | 270 kts | 225° |
| 2026-05-08 00:46 | 47.56537 | -122.55140 | 6054 ft | 270 kts | 225° |
| 2026-05-08 00:47 | 47.55231 | -122.57131 | 6052 ft | 270 kts | 226° |
| 2026-05-08 00:47 | 47.53928 | -122.59134 | 6054 ft | 270 kts | 226° |
| 2026-05-08 00:47 | 47.52627 | -122.61134 | 6054 ft | 269 kts | 226° |
| 2026-05-08 00:47 | 47.51326 | -122.63131 | 6051 ft | 269 kts | 226° |
| 2026-05-08 00:48 | 47.50018 | -122.65138 | 6225 ft | 273 kts | 226° |
| 2026-05-08 00:48 | 47.48694 | -122.67161 | 6840 ft | 273 kts | 226° |
| 2026-05-08 00:48 | 47.47372 | -122.69176 | 7446 ft | 274 kts | 226° |
| 2026-05-08 00:48 | 47.46036 | -122.71212 | 8031 ft | 277 kts | 226° |
| 2026-05-08 00:49 | 47.44705 | -122.73241 | 8600 ft | 280 kts | 226° |
| 2026-05-08 00:49 | 47.43343 | -122.75314 | 9182 ft | 283 kts | 226° |
| 2026-05-08 00:49 | 47.41966 | -122.77409 | 9770 ft | 286 kts | 226° |
| 2026-05-08 00:49 | 47.40570 | -122.79528 | 10269 ft | 292 kts | 226° |
| 2026-05-08 00:50 | 47.39107 | -122.81747 | 10419 ft | 310 kts | 226° |
| 2026-05-08 00:50 | 47.37561 | -122.84091 | 10574 ft | 327 kts | 226° |
| 2026-05-08 00:50 | 47.35944 | -122.86543 | 10880 ft | 337 kts | 226° |
| 2026-05-08 00:50 | 47.34301 | -122.89028 | 11420 ft | 339 kts | 226° |
| 2026-05-08 00:51 | 47.32649 | -122.91527 | 11937 ft | 341 kts | 226° |
| 2026-05-08 00:51 | 47.30987 | -122.94037 | 12484 ft | 343 kts | 226° |
| 2026-05-08 00:51 | 47.29314 | -122.96562 | 13015 ft | 346 kts | 227° |
| 2026-05-08 00:51 | 47.27627 | -122.99103 | 13557 ft | 348 kts | 227° |
| 2026-05-08 00:52 | 47.25937 | -123.01669 | 14065 ft | 350 kts | 229° |
| 2026-05-08 00:52 | 47.24464 | -123.04508 | 14552 ft | 350 kts | 239° |
| 2026-05-08 00:52 | 47.23334 | -123.07681 | 15030 ft | 351 kts | 248° |
| 2026-05-08 00:52 | 47.22475 | -123.11046 | 15503 ft | 352 kts | 251° |
| 2026-05-08 00:53 | 47.21618 | -123.14426 | 15998 ft | 354 kts | 250° |
| 2026-05-08 00:53 | 47.20740 | -123.17815 | 16481 ft | 356 kts | 250° |
| 2026-05-08 00:53 | 47.19847 | -123.21224 | 16951 ft | 358 kts | 250° |
| 2026-05-08 00:53 | 47.18949 | -123.24638 | 17404 ft | 360 kts | 250° |
| 2026-05-08 00:54 | 47.18042 | -123.28074 | 17881 ft | 361 kts | 250° |
| 2026-05-08 00:54 | 47.17131 | -123.31522 | 18351 ft | 363 kts | 250° |
| 2026-05-08 00:54 | 47.16225 | -123.34948 | 18760 ft | 365 kts | 250° |
| 2026-05-08 00:54 | 47.15303 | -123.38434 | 19159 ft | 367 kts | 250° |
| 2026-05-08 00:55 | 47.14363 | -123.41979 | 19592 ft | 369 kts | 250° |
| 2026-05-08 00:55 | 47.13430 | -123.45495 | 20010 ft | 371 kts | 250° |
| 2026-05-08 00:55 | 47.12502 | -123.48988 | 20440 ft | 372 kts | 250° |
| 2026-05-08 00:55 | 47.11556 | -123.52538 | 20865 ft | 375 kts | 250° |
| 2026-05-08 00:56 | 47.10604 | -123.56109 | 21307 ft | 377 kts | 250° |
| 2026-05-08 00:56 | 47.09645 | -123.59699 | 21740 ft | 379 kts | 250° |
| 2026-05-08 00:56 | 47.08681 | -123.63299 | 22181 ft | 380 kts | 250° |
| 2026-05-08 00:56 | 47.07711 | -123.66924 | 22633 ft | 382 kts | 249° |
| 2026-05-08 00:57 | 47.06735 | -123.70561 | 23053 ft | 384 kts | 249° |
| 2026-05-08 00:57 | 47.05753 | -123.74215 | 23500 ft | 386 kts | 249° |
| 2026-05-08 00:57 | 47.04763 | -123.77892 | 23904 ft | 388 kts | 249° |
| 2026-05-08 00:57 | 47.03769 | -123.81578 | 24278 ft | 390 kts | 249° |
| 2026-05-08 00:58 | 47.02769 | -123.85278 | 24655 ft | 391 kts | 249° |
| 2026-05-08 00:58 | 47.01762 | -123.89000 | 25003 ft | 394 kts | 249° |
| 2026-05-08 00:58 | 47.01079 | -123.91521 | 25252 ft | 395 kts | 249° |
| 2026-05-08 00:58 | 47.00076 | -123.95220 | 25612 ft | 397 kts | 249° |
| 2026-05-08 00:59 | 46.99053 | -123.98989 | 25962 ft | 399 kts | 249° |
| 2026-05-08 00:59 | 46.98024 | -124.02768 | 26322 ft | 401 kts | 249° |
| 2026-05-08 00:59 | 46.96989 | -124.06565 | 26662 ft | 403 kts | 249° |
| 2026-05-08 00:59 | 46.95930 | -124.10436 | 27016 ft | 405 kts | 249° |
| 2026-05-08 01:00 | 46.94733 | -124.14104 | 27344 ft | 408 kts | 243° |
| 2026-05-08 01:00 | 46.93236 | -124.17652 | 27676 ft | 411 kts | 237° |
| 2026-05-08 01:00 | 46.91489 | -124.20979 | 28016 ft | 414 kts | 233° |
| 2026-05-08 01:00 | 46.89683 | -124.24281 | 28324 ft | 416 kts | 233° |
| 2026-05-08 01:01 | 46.87793 | -124.27501 | 28596 ft | 419 kts | 232° |
| 2026-05-08 01:01 | 46.85886 | -124.30736 | 28892 ft | 421 kts | 231° |